createdAt,value
2017-09-10T00:00:42.597Z,3.60
2017-09-10T00:01:48.534Z,4.20
2017-09-10T00:02:54.718Z,4.32
2017-09-10T00:04:00.956Z,3.90
2017-09-10T00:05:07.057Z,4.05
2017-09-10T00:06:13.370Z,4.30
2017-09-10T00:07:19.584Z,3.67
2017-09-10T00:08:25.522Z,4.55
2017-09-10T00:09:31.440Z,3.78
2017-09-10T00:10:37.643Z,3.92
2017-09-10T00:11:43.919Z,3.80
2017-09-10T00:12:50.159Z,3.85
2017-09-10T00:13:56.431Z,4.22
2017-09-10T00:15:02.426Z,4.00
2017-09-10T00:16:08.781Z,4.10
2017-09-10T00:17:15.048Z,4.37
2017-09-10T00:18:21.512Z,4.20
2017-09-10T00:19:27.713Z,5.18
2017-09-10T00:20:33.959Z,4.20
2017-09-10T00:21:40.133Z,3.95
2017-09-10T00:22:46.358Z,3.45
2017-09-10T00:23:52.610Z,3.85
2017-09-10T00:24:58.634Z,3.53
2017-09-10T00:26:04.743Z,3.90
2017-09-10T00:27:10.819Z,4.35
2017-09-10T00:28:17.862Z,4.50
2017-09-10T00:29:24.543Z,4.32
2017-09-10T00:30:30.401Z,4.43
2017-09-10T00:31:36.450Z,4.32
2017-09-10T00:32:42.751Z,4.40
2017-09-10T00:33:49.023Z,4.90
2017-09-10T00:34:56.088Z,4.93
2017-09-10T00:36:03.382Z,5.30
2017-09-10T00:37:09.658Z,4.80
2017-09-10T00:38:16.084Z,4.50
2017-09-10T00:39:22.459Z,5.15
2017-09-10T00:40:28.849Z,4.60
2017-09-10T00:41:35.001Z,4.95
2017-09-10T00:42:41.338Z,4.50
2017-09-10T00:43:47.360Z,4.70
2017-09-10T00:44:53.505Z,4.75
2017-09-10T00:45:59.627Z,4.90
2017-09-10T00:47:05.838Z,4.62
2017-09-10T00:48:11.981Z,4.78
2017-09-10T00:49:18.101Z,5.15
2017-09-10T00:50:23.485Z,4.72
2017-09-10T00:51:28.953Z,5.12
2017-09-10T00:52:34.273Z,5.57
2017-09-10T00:53:40.567Z,4.80
2017-09-10T00:54:46.062Z,5.37
2017-09-10T00:55:52.361Z,4.90
2017-09-10T00:56:58.477Z,5.18
2017-09-10T00:58:04.906Z,4.87
2017-09-10T00:59:11.026Z,4.72
2017-09-10T01:00:17.152Z,5.00
2017-09-10T01:01:23.084Z,4.20
2017-09-10T01:02:28.944Z,4.40
2017-09-10T01:03:35.984Z,4.65
2017-09-10T01:04:41.829Z,4.15
2017-09-10T01:05:47.919Z,4.82
2017-09-10T01:06:54.037Z,3.90
2017-09-10T01:08:01.211Z,5.18
2017-09-10T01:09:07.005Z,4.95
2017-09-10T01:10:12.580Z,5.12
2017-09-10T01:11:18.705Z,4.55
2017-09-10T01:12:24.448Z,5.20
2017-09-10T01:13:30.302Z,4.65
2017-09-10T01:14:36.419Z,4.78
2017-09-10T01:15:42.501Z,5.07
2017-09-10T01:16:49.313Z,5.10
2017-09-10T01:17:55.390Z,5.07
2017-09-10T01:19:01.656Z,4.37
2017-09-10T01:20:07.196Z,5.07
2017-09-10T01:21:12.813Z,4.22
2017-09-10T01:22:18.190Z,4.40
2017-09-10T01:23:24.550Z,4.70
2017-09-10T01:24:29.917Z,4.37
2017-09-10T01:25:36.112Z,4.87
2017-09-10T01:26:41.535Z,3.92
2017-09-10T01:27:47.501Z,4.82
2017-09-10T01:28:53.818Z,4.15
2017-09-10T01:29:59.877Z,4.20
2017-09-10T01:31:06.010Z,4.03
2017-09-10T01:32:12.275Z,4.22
2017-09-10T01:33:18.533Z,3.80
2017-09-10T01:34:24.777Z,4.43
2017-09-10T01:35:31.759Z,4.28
2017-09-10T01:36:41.795Z,4.30
2017-09-10T01:37:47.991Z,4.70
2017-09-10T01:38:54.267Z,4.47
2017-09-10T01:40:00.415Z,4.15
2017-09-10T01:41:06.527Z,4.12
2017-09-10T01:42:12.731Z,4.22
2017-09-10T01:43:18.831Z,4.60
2017-09-10T01:44:25.860Z,4.70
2017-09-10T01:45:32.028Z,4.22
2017-09-10T01:46:38.164Z,4.28
2017-09-10T01:47:44.251Z,4.28
2017-09-10T01:48:50.314Z,4.80
2017-09-10T01:49:56.448Z,4.20
2017-09-10T01:51:02.680Z,4.25
2017-09-10T01:52:08.833Z,4.53
2017-09-10T01:53:14.766Z,4.30
2017-09-10T01:54:21.224Z,4.40
2017-09-10T01:55:27.216Z,4.45
2017-09-10T01:56:33.408Z,4.82
2017-09-10T01:57:39.486Z,4.25
2017-09-10T01:58:45.741Z,3.85
2017-09-10T01:59:51.561Z,4.12
2017-09-10T02:00:57.133Z,4.62
2017-09-10T02:02:03.289Z,4.55
2017-09-10T02:03:09.490Z,4.80
2017-09-10T02:04:15.491Z,4.57
2017-09-10T02:05:21.526Z,4.50
2017-09-10T02:06:27.785Z,4.20
2017-09-10T02:07:33.863Z,4.40
2017-09-10T02:08:40.183Z,4.95
2017-09-10T02:09:46.288Z,5.18
2017-09-10T02:10:52.592Z,4.20
2017-09-10T02:11:58.528Z,5.20
2017-09-10T02:13:04.784Z,4.22
2017-09-10T02:14:11.188Z,4.62
2017-09-10T02:15:18.196Z,4.95
2017-09-10T02:16:25.226Z,4.57
2017-09-10T02:17:31.334Z,5.25
2017-09-10T02:18:37.527Z,4.75
2017-09-10T02:19:43.755Z,4.70
2017-09-10T02:20:49.862Z,4.72
2017-09-10T02:21:56.069Z,5.03
2017-09-10T02:23:03.152Z,4.72
2017-09-10T02:24:09.293Z,4.40
2017-09-10T02:25:15.358Z,4.82
2017-09-10T02:26:21.509Z,4.70
2017-09-10T02:27:27.844Z,4.65
2017-09-10T02:28:34.161Z,4.60
2017-09-10T02:29:40.296Z,4.40
2017-09-10T02:30:46.470Z,4.60
2017-09-10T02:31:52.725Z,4.80
2017-09-10T02:32:59.055Z,5.03
2017-09-10T02:34:06.218Z,5.18
2017-09-10T02:35:12.433Z,5.05
2017-09-10T02:36:18.493Z,5.00
2017-09-10T02:37:24.757Z,5.10
2017-09-10T02:38:30.958Z,4.70
2017-09-10T02:39:37.211Z,4.55
2017-09-10T02:40:43.450Z,4.57
2017-09-10T02:41:49.679Z,3.95
2017-09-10T02:42:55.789Z,5.20
2017-09-10T02:44:02.038Z,4.30
2017-09-10T02:45:08.182Z,4.78
2017-09-10T02:46:14.384Z,4.30
2017-09-10T02:47:21.035Z,5.22
2017-09-10T02:48:28.423Z,4.95
2017-09-10T02:49:34.656Z,4.32
2017-09-10T02:50:40.843Z,4.80
2017-09-10T02:51:47.380Z,4.45
2017-09-10T02:52:53.569Z,4.03
2017-09-10T02:53:59.775Z,4.55
2017-09-10T02:55:06.192Z,4.95
2017-09-10T02:56:12.625Z,4.37
2017-09-10T02:57:18.824Z,4.10
2017-09-10T02:58:25.267Z,4.20
2017-09-10T02:59:32.776Z,3.55
2017-09-10T03:00:39.218Z,4.12
2017-09-10T03:01:45.618Z,3.90
2017-09-10T03:02:51.875Z,4.20
2017-09-10T03:03:58.127Z,4.18
2017-09-10T03:05:04.370Z,4.32
2017-09-10T03:06:10.726Z,4.35
2017-09-10T03:07:17.095Z,4.53
2017-09-10T03:08:23.350Z,4.32
2017-09-10T03:09:29.726Z,4.32
2017-09-10T03:10:37.047Z,4.15
2017-09-10T03:11:43.202Z,4.10
2017-09-10T03:12:49.324Z,4.00
2017-09-10T03:13:56.511Z,3.60
2017-09-10T03:15:03.658Z,4.00
2017-09-10T03:16:09.782Z,4.87
2017-09-10T03:17:16.177Z,5.20
2017-09-10T03:18:22.383Z,3.92
2017-09-10T03:19:28.638Z,3.90
2017-09-10T03:20:34.789Z,4.12
2017-09-10T03:21:41.062Z,3.85
2017-09-10T03:22:47.216Z,4.60
2017-09-10T03:23:53.425Z,4.43
2017-09-10T03:24:59.792Z,3.67
2017-09-10T03:26:06.164Z,4.20
2017-09-10T03:27:12.360Z,4.45
2017-09-10T03:28:18.735Z,4.03
2017-09-10T03:29:25.299Z,4.10
2017-09-10T03:30:31.767Z,4.30
2017-09-10T03:31:38.164Z,5.07
2017-09-10T03:32:44.311Z,3.85
2017-09-10T03:33:50.808Z,3.83
2017-09-10T03:34:57.544Z,4.10
2017-09-10T03:36:03.830Z,3.83
2017-09-10T03:37:10.337Z,3.47
2017-09-10T03:38:16.732Z,4.00
2017-09-10T03:39:23.468Z,3.25
2017-09-10T03:40:31.014Z,3.50
2017-09-10T03:41:37.224Z,3.90
2017-09-10T03:42:43.377Z,3.90
2017-09-10T03:43:50.071Z,3.80
2017-09-10T03:44:56.077Z,3.97
2017-09-10T03:46:02.333Z,3.50
2017-09-10T03:47:08.513Z,3.87
2017-09-10T03:48:15.504Z,4.00
2017-09-10T03:49:21.583Z,4.00
2017-09-10T03:50:27.584Z,3.70
2017-09-10T03:51:33.742Z,3.40
2017-09-10T03:52:39.985Z,3.45
2017-09-10T03:53:46.126Z,3.70
2017-09-10T03:54:53.423Z,3.87
2017-09-10T03:56:00.724Z,3.30
2017-09-10T03:57:08.010Z,4.03
2017-09-10T03:58:15.320Z,4.45
2017-09-10T03:59:22.045Z,3.25
2017-09-10T04:00:28.696Z,3.60
2017-09-10T04:01:35.773Z,3.80
2017-09-10T04:02:43.700Z,4.18
2017-09-10T04:03:51.241Z,4.20
2017-09-10T04:04:58.467Z,4.00
2017-09-10T04:06:05.704Z,4.50
2017-09-10T04:07:13.711Z,4.05
2017-09-10T04:08:21.217Z,3.92
2017-09-10T04:09:28.775Z,3.95
2017-09-10T04:10:36.155Z,4.18
2017-09-10T04:11:43.195Z,3.78
2017-09-10T04:12:52.264Z,4.30
2017-09-10T04:14:00.155Z,4.03
2017-09-10T04:15:07.202Z,4.00
2017-09-10T04:16:14.730Z,3.70
2017-09-10T04:17:21.386Z,3.35
2017-09-10T04:18:29.696Z,3.95
2017-09-10T04:19:37.079Z,3.80
2017-09-10T04:20:44.246Z,4.00
2017-09-10T04:21:51.293Z,3.40
2017-09-10T04:22:58.727Z,4.10
2017-09-10T04:24:07.210Z,3.70
2017-09-10T04:25:16.238Z,4.12
2017-09-10T04:26:25.195Z,4.43
2017-09-10T04:27:33.614Z,3.92
2017-09-10T04:28:41.515Z,3.87
2017-09-10T04:29:49.833Z,3.65
2017-09-10T04:30:58.289Z,4.05
2017-09-10T04:32:06.185Z,4.40
2017-09-10T04:33:14.260Z,3.72
2017-09-10T04:34:21.943Z,4.05
2017-09-10T04:35:30.342Z,4.20
2017-09-10T04:36:39.192Z,4.00
2017-09-10T04:37:47.296Z,4.00
2017-09-10T04:38:54.727Z,4.20
2017-09-10T04:40:02.242Z,4.30
2017-09-10T04:41:11.268Z,3.67
2017-09-10T04:42:18.800Z,3.87
2017-09-10T04:43:28.119Z,4.07
2017-09-10T04:44:36.234Z,3.97
2017-09-10T04:45:44.683Z,4.32
2017-09-10T04:46:52.274Z,4.07
2017-09-10T04:48:00.326Z,4.20
2017-09-10T04:49:09.505Z,4.00
2017-09-10T04:50:17.624Z,4.40
2017-09-10T04:51:26.184Z,3.90
2017-09-10T04:52:35.287Z,3.95
2017-09-10T04:53:44.551Z,3.97
2017-09-10T04:54:52.281Z,4.30
2017-09-10T04:56:00.292Z,4.18
2017-09-10T04:57:09.177Z,4.40
2017-09-10T04:58:18.309Z,4.50
2017-09-10T04:59:28.308Z,4.50
2017-09-10T05:00:35.982Z,4.35
2017-09-10T05:01:46.274Z,4.43
2017-09-10T05:02:55.544Z,4.00
2017-09-10T05:04:05.270Z,4.28
2017-09-10T05:05:14.209Z,3.72
2017-09-10T05:06:23.339Z,3.53
2017-09-10T05:07:32.222Z,4.57
2017-09-10T05:08:41.199Z,4.15
2017-09-10T05:09:49.395Z,4.35
2017-09-10T05:10:58.234Z,4.10
2017-09-10T05:12:07.151Z,4.43
2017-09-10T05:13:15.164Z,3.97
2017-09-10T05:14:24.156Z,5.28
2017-09-10T05:15:34.225Z,4.55
2017-09-10T05:16:44.356Z,4.18
2017-09-10T05:17:55.422Z,4.50
2017-09-10T05:19:05.173Z,4.87
2017-09-10T05:20:15.144Z,4.60
2017-09-10T05:21:24.204Z,4.60
2017-09-10T05:22:38.168Z,4.85
2017-09-10T05:24:08.321Z,5.68
2017-09-10T05:25:22.014Z,5.32
2017-09-10T05:26:32.179Z,5.22
2017-09-10T05:27:40.301Z,6.20
2017-09-10T05:28:50.152Z,6.30
2017-09-10T05:30:00.751Z,6.15
2017-09-10T05:31:09.067Z,6.07
2017-09-10T05:32:17.084Z,5.68
2017-09-10T05:33:26.128Z,6.22
2017-09-10T05:34:34.126Z,6.00
2017-09-10T05:35:43.410Z,5.37
2017-09-10T05:36:52.505Z,6.03
2017-09-10T05:38:00.225Z,5.60
2017-09-10T05:39:10.990Z,5.57
2017-09-10T05:40:22.470Z,5.10
2017-09-10T05:41:30.028Z,5.45
2017-09-10T05:44:16.218Z,6.22
2017-09-10T05:45:26.016Z,5.68
2017-09-10T05:46:36.255Z,5.50
2017-09-10T05:47:45.259Z,6.00
2017-09-10T05:48:56.294Z,5.32
2017-09-10T05:50:06.189Z,5.25
2017-09-10T05:51:18.145Z,4.93
2017-09-10T05:52:29.238Z,5.70
2017-09-10T05:53:40.206Z,4.93
2017-09-10T05:54:50.182Z,5.07
2017-09-10T05:56:01.213Z,6.03
2017-09-10T05:57:11.210Z,4.82
2017-09-10T05:58:22.251Z,5.65
2017-09-10T05:59:32.142Z,5.18
2017-09-10T06:00:43.194Z,5.20
2017-09-10T06:01:55.185Z,5.80
2017-09-10T06:03:06.226Z,5.05
2017-09-10T06:04:16.163Z,6.05
2017-09-10T06:05:25.630Z,6.10
2017-09-10T06:06:35.137Z,4.75
2017-09-10T06:07:45.920Z,4.95
2017-09-10T06:08:58.180Z,4.80
2017-09-10T06:10:08.186Z,4.82
2017-09-10T06:11:18.116Z,5.30
2017-09-10T06:12:29.124Z,4.62
2017-09-10T06:13:39.084Z,4.85
2017-09-10T06:14:50.166Z,4.50
2017-09-10T06:16:15.422Z,4.62
2017-09-10T06:19:16.490Z,4.70
2017-09-10T06:20:26.292Z,5.18
2017-09-10T06:21:36.089Z,5.00
2017-09-10T06:22:49.037Z,5.75
2017-09-10T06:27:02.101Z,5.30
2017-09-10T06:28:12.323Z,4.78
2017-09-10T06:29:21.586Z,4.78
2017-09-10T06:30:32.134Z,4.55
2017-09-10T06:31:42.139Z,5.15
2017-09-10T06:32:52.152Z,5.10
2017-09-10T06:34:02.163Z,4.65
2017-09-10T06:35:11.388Z,4.53
2017-09-10T06:36:21.062Z,4.85
2017-09-10T06:37:29.921Z,4.35
2017-09-10T06:38:39.016Z,5.40
2017-09-10T06:39:48.079Z,4.62
2017-09-10T06:40:56.895Z,4.62
2017-09-10T06:42:05.670Z,4.90
2017-09-10T06:43:14.003Z,3.90
2017-09-10T06:44:22.023Z,4.50
2017-09-10T06:45:30.982Z,4.47
2017-09-10T06:46:39.009Z,4.40
2017-09-10T06:47:48.124Z,4.53
2017-09-10T06:48:56.936Z,4.37
2017-09-10T06:50:05.354Z,4.60
2017-09-10T06:51:12.548Z,3.75
2017-09-10T06:52:20.918Z,3.70
2017-09-10T06:53:29.019Z,4.70
2017-09-10T06:54:36.925Z,4.35
2017-09-10T06:55:44.910Z,5.18
2017-09-10T06:56:53.868Z,4.45
2017-09-10T06:58:02.073Z,4.30
2017-09-10T06:59:10.347Z,4.45
2017-09-10T07:00:18.125Z,4.55
2017-09-10T07:01:26.905Z,3.90
2017-09-10T07:02:34.971Z,4.30
2017-09-10T07:03:42.938Z,4.07
2017-09-10T07:04:51.868Z,4.45
2017-09-10T07:06:00.684Z,4.50
2017-09-10T07:07:07.879Z,4.10
2017-09-10T07:08:16.035Z,4.35
2017-09-10T07:09:23.898Z,4.40
2017-09-10T07:10:33.964Z,4.07
2017-09-10T07:11:41.933Z,4.10
2017-09-10T07:12:49.968Z,4.25
2017-09-10T07:13:56.975Z,4.60
2017-09-10T07:15:04.906Z,4.20
2017-09-10T07:16:13.968Z,4.55
2017-09-10T07:17:23.538Z,4.75
2017-09-10T07:18:31.325Z,4.60
2017-09-10T07:19:39.348Z,3.75
2017-09-10T07:20:46.863Z,4.87
2017-09-10T07:21:54.917Z,4.80
2017-09-10T07:23:02.814Z,4.50
2017-09-10T07:24:09.792Z,5.28
2017-09-10T07:25:17.922Z,4.05
2017-09-10T07:26:25.704Z,4.20
2017-09-10T07:27:32.887Z,4.50
2017-09-10T07:28:40.817Z,4.85
2017-09-10T07:29:48.505Z,4.25
2017-09-10T07:30:55.238Z,4.30
2017-09-10T07:32:03.562Z,4.10
2017-09-10T07:33:11.897Z,4.25
2017-09-10T07:34:19.759Z,4.22
2017-09-10T07:35:26.749Z,4.20
2017-09-10T07:36:34.843Z,4.32
2017-09-10T07:37:42.883Z,3.60
2017-09-10T07:38:50.265Z,3.55
2017-09-10T07:39:56.820Z,4.22
2017-09-10T07:41:05.298Z,3.58
2017-09-10T07:42:12.365Z,4.78
2017-09-10T07:43:19.763Z,3.97
2017-09-10T07:44:26.775Z,3.33
2017-09-10T07:45:35.830Z,3.92
2017-09-10T07:46:44.863Z,2.85
2017-09-10T07:47:53.845Z,3.42
2017-09-10T07:49:01.733Z,3.60
2017-09-10T07:50:10.853Z,4.30
2017-09-10T07:51:18.803Z,3.53
2017-09-10T07:52:28.958Z,4.00
2017-09-10T07:53:36.888Z,3.12
2017-09-10T07:54:46.928Z,3.10
2017-09-10T07:55:57.857Z,3.60
2017-09-10T07:57:06.884Z,3.40
2017-09-10T07:58:20.426Z,3.17
2017-09-10T07:59:33.024Z,2.87
2017-09-10T08:00:42.804Z,3.00
2017-09-10T08:01:52.918Z,2.70
2017-09-10T08:03:03.066Z,2.47
2017-09-10T08:04:13.002Z,2.60
2017-09-10T08:05:23.913Z,2.35
2017-09-10T08:06:35.034Z,2.35
2017-09-10T08:07:44.943Z,2.53
2017-09-10T08:08:57.893Z,2.00
2017-09-10T08:10:08.988Z,2.33
2017-09-10T08:11:17.966Z,2.58
2017-09-10T08:12:30.996Z,1.90
2017-09-10T08:13:43.067Z,2.40
2017-09-10T08:14:52.940Z,1.98
2017-09-10T08:16:01.796Z,2.37
2017-09-10T08:17:12.812Z,2.40
2017-09-10T08:18:23.912Z,2.05
2017-09-10T08:19:35.912Z,2.10
2017-09-10T08:22:59.793Z,1.70
2017-09-10T08:24:11.890Z,1.90
2017-09-10T08:27:22.046Z,1.42
2017-09-10T08:28:30.781Z,1.75
2017-09-10T08:29:39.900Z,1.90
2017-09-10T08:30:48.825Z,1.70
2017-09-10T08:32:10.929Z,1.55
2017-09-10T08:33:21.933Z,1.45
2017-09-10T08:34:32.885Z,1.70
2017-09-10T08:35:43.852Z,1.60
2017-09-10T08:38:40.536Z,1.67
2017-09-10T08:40:32.651Z,1.90
2017-09-10T08:42:00.937Z,1.40
2017-09-10T08:43:12.784Z,1.40
2017-09-10T08:44:23.765Z,1.52
2017-09-10T08:47:07.765Z,1.20
2017-09-10T08:50:09.618Z,1.40
2017-09-10T08:51:20.964Z,1.33
2017-09-10T08:52:36.842Z,1.35
2017-09-10T08:54:11.661Z,1.70
2017-09-10T08:55:39.506Z,1.27
2017-09-10T08:56:46.423Z,1.40
2017-09-10T08:57:54.798Z,1.27
2017-09-10T08:59:06.212Z,1.20
2017-09-10T09:06:11.953Z,1.25
2017-09-10T09:07:19.671Z,1.40
2017-09-10T09:08:28.710Z,1.30
2017-09-10T09:10:00.970Z,1.55
2017-09-10T09:11:09.707Z,1.52
2017-09-10T09:12:20.217Z,1.30
2017-09-10T09:13:33.493Z,1.50
2017-09-10T09:14:52.884Z,1.60
2017-09-10T09:16:34.352Z,1.65
2017-09-10T09:17:43.754Z,1.70
2017-09-10T09:18:54.764Z,1.65
2017-09-10T09:20:04.675Z,1.98
2017-09-10T09:21:13.810Z,1.50
2017-09-10T09:22:35.707Z,1.77
2017-09-10T09:23:46.791Z,1.20
2017-09-10T09:24:57.780Z,1.83
2017-09-10T09:26:07.965Z,1.70
2017-09-10T09:27:33.737Z,1.55
2017-09-10T09:28:44.805Z,1.20
2017-09-10T09:29:58.695Z,1.80
2017-09-10T09:31:15.601Z,1.52
2017-09-10T09:32:28.746Z,1.77
2017-09-10T09:34:03.957Z,1.50
2017-09-10T09:35:34.918Z,1.73
2017-09-10T09:36:56.979Z,1.77
2017-09-10T09:38:07.520Z,1.62
2017-09-10T09:39:21.809Z,1.90
2017-09-10T09:40:44.593Z,1.75
2017-09-10T09:42:14.507Z,1.85
2017-09-10T09:44:04.019Z,1.80
2017-09-10T09:45:40.449Z,1.90
2017-09-10T09:50:10.587Z,1.48
2017-09-10T09:51:33.488Z,1.50
2017-09-10T09:52:47.444Z,1.42
2017-09-10T09:56:35.746Z,1.80
2017-09-10T09:57:47.838Z,1.20
2017-09-10T09:59:22.407Z,1.80
2017-09-10T10:00:53.827Z,1.73
2017-09-10T10:02:29.759Z,1.55
2017-09-10T10:03:49.788Z,1.60
2017-09-10T10:05:13.538Z,1.83
2017-09-10T10:06:43.573Z,2.03
2017-09-10T10:08:10.786Z,1.98
2017-09-10T10:09:44.896Z,1.70
2017-09-10T10:11:17.981Z,1.83
2017-09-10T10:16:10.484Z,1.50
2017-09-10T10:20:54.770Z,1.40
2017-09-10T10:25:40.464Z,1.60
2017-09-10T10:26:49.808Z,1.65
2017-09-10T10:28:01.459Z,1.40
2017-09-10T10:29:21.648Z,1.40
2017-09-10T10:32:13.654Z,1.40
2017-09-10T10:33:25.821Z,1.33
2017-09-10T10:34:53.504Z,1.30
2017-09-10T10:37:46.786Z,1.50
2017-09-10T10:39:13.805Z,1.70
2017-09-10T10:41:59.225Z,1.02
2017-09-10T10:43:25.562Z,0.88
2017-09-10T10:45:00.449Z,1.37
2017-09-10T10:46:11.915Z,1.42
2017-09-10T10:49:55.435Z,1.40
2017-09-10T10:53:15.638Z,1.10
2017-09-10T10:56:10.863Z,1.52
2017-09-10T10:59:21.489Z,1.37
2017-09-10T11:00:29.232Z,1.30
2017-09-10T11:01:36.660Z,1.37
2017-09-10T11:03:14.769Z,1.30
2017-09-10T11:04:33.612Z,1.00
2017-09-10T11:05:48.646Z,1.02
2017-09-10T11:07:03.555Z,1.20
2017-09-10T11:08:24.585Z,1.25
2017-09-10T11:09:42.348Z,1.50
2017-09-10T11:11:20.312Z,1.00
2017-09-10T11:12:32.449Z,1.27
2017-09-10T11:13:54.785Z,1.12
2017-09-10T11:15:11.715Z,1.10
2017-09-10T11:16:41.195Z,1.23
2017-09-10T11:17:59.633Z,1.50
2017-09-10T11:19:40.679Z,1.25
2017-09-10T11:20:52.537Z,1.30
2017-09-10T11:22:05.593Z,1.10
2017-09-10T11:23:13.602Z,1.30
2017-09-10T11:24:22.314Z,1.30
2017-09-10T11:25:32.693Z,1.10
2017-09-10T11:28:30.323Z,1.30
2017-09-10T11:30:00.547Z,1.35
2017-09-10T11:31:31.223Z,1.10
2017-09-10T11:32:39.497Z,1.50
2017-09-10T11:34:08.610Z,1.45
2017-09-10T11:35:42.404Z,1.40
2017-09-10T11:37:18.671Z,1.25
2017-09-10T11:38:50.119Z,1.60
2017-09-10T11:40:19.392Z,1.40
2017-09-10T11:41:37.230Z,1.30
2017-09-10T11:43:09.639Z,1.20
2017-09-10T11:44:19.395Z,1.37
2017-09-10T11:45:37.415Z,1.20
2017-09-10T11:46:56.075Z,1.27
2017-09-10T11:48:05.008Z,1.42
2017-09-10T11:49:38.378Z,1.10
2017-09-10T11:50:49.493Z,1.30
2017-09-10T11:52:11.775Z,1.25
2017-09-10T11:53:22.344Z,1.33
2017-09-10T11:54:41.000Z,1.00
2017-09-10T11:55:56.650Z,1.08
2017-09-10T11:57:09.485Z,1.45
2017-09-10T11:58:22.753Z,1.10
2017-09-10T12:01:27.373Z,1.25
2017-09-10T12:02:59.147Z,2.40
2017-09-10T12:05:41.397Z,1.40
2017-09-10T12:07:16.526Z,1.83
2017-09-10T12:08:52.738Z,1.30
2017-09-10T12:10:30.653Z,1.50
2017-09-10T12:15:11.323Z,1.20
2017-09-10T12:16:34.578Z,1.15
2017-09-10T12:18:05.107Z,1.30
2017-09-10T12:19:17.707Z,1.33
2017-09-10T12:22:25.337Z,1.35
2017-09-10T12:24:03.440Z,1.60
2017-09-10T12:25:16.218Z,1.20
2017-09-10T12:26:25.191Z,1.60
2017-09-10T12:27:35.216Z,1.10
2017-09-10T12:28:58.296Z,1.30
2017-09-10T12:30:29.290Z,1.10
2017-09-10T12:35:24.254Z,1.30
2017-09-10T12:36:38.604Z,1.45
2017-09-10T12:38:27.881Z,1.10
2017-09-10T12:41:17.351Z,1.30
2017-09-10T12:42:29.937Z,1.40
2017-09-10T12:43:39.215Z,1.52
2017-09-10T12:44:55.476Z,1.25
2017-09-10T12:46:12.658Z,1.30
2017-09-10T12:47:39.951Z,1.30
2017-09-10T12:49:13.080Z,1.30
2017-09-10T12:52:38.692Z,1.37
2017-09-10T12:53:47.882Z,1.60
2017-09-10T12:55:17.284Z,1.17
2017-09-10T12:56:33.399Z,1.23
2017-09-10T12:58:13.276Z,1.37
2017-09-10T13:05:47.445Z,1.30
2017-09-10T13:07:20.307Z,1.35
2017-09-10T13:08:31.547Z,1.45
2017-09-10T13:09:58.182Z,1.42
2017-09-10T13:11:28.307Z,1.60
2017-09-10T13:12:49.188Z,1.27
2017-09-10T13:14:13.387Z,1.00
2017-09-10T13:16:59.192Z,1.55
2017-09-10T13:18:29.554Z,1.15
2017-09-10T13:19:40.475Z,1.20
2017-09-10T13:21:26.149Z,1.48
2017-09-10T13:22:53.979Z,1.30
2017-09-10T13:26:39.407Z,1.60
2017-09-10T13:28:04.197Z,1.20
2017-09-10T13:29:27.530Z,1.30
2017-09-10T13:31:05.516Z,1.30
2017-09-10T13:32:15.356Z,0.98
2017-09-10T13:33:56.211Z,1.20
2017-09-10T13:35:13.237Z,1.20
2017-09-10T13:38:36.513Z,1.05
2017-09-10T13:40:30.210Z,1.27
2017-09-10T13:41:42.346Z,1.00
2017-09-10T13:48:24.464Z,0.85
2017-09-10T13:51:34.318Z,0.80
2017-09-10T13:52:58.139Z,1.00
2017-09-10T13:54:30.999Z,1.10
2017-09-10T13:56:15.115Z,1.17
2017-09-10T13:57:30.360Z,1.00
2017-09-10T13:58:42.368Z,1.02
2017-09-10T14:00:15.423Z,0.80
2017-09-10T14:01:28.505Z,1.00
2017-09-10T14:03:02.014Z,1.00
2017-09-10T14:04:17.919Z,0.85
2017-09-10T14:05:55.800Z,1.00
2017-09-10T14:07:22.195Z,1.10
2017-09-10T14:08:44.988Z,1.00
2017-09-10T14:13:41.989Z,1.00
2017-09-10T14:14:52.611Z,0.95
2017-09-10T14:16:46.178Z,1.00
2017-09-10T14:19:36.323Z,0.95
2017-09-10T14:20:46.420Z,0.80
2017-09-10T14:22:09.116Z,0.88
2017-09-10T14:24:57.756Z,0.90
2017-09-10T14:26:33.109Z,1.08
2017-09-10T14:27:45.224Z,1.08
2017-09-10T14:31:53.230Z,1.00
2017-09-10T14:33:03.224Z,0.90
2017-09-10T14:34:14.565Z,0.88
2017-09-10T14:35:31.155Z,0.90
2017-09-10T14:36:51.166Z,1.00
2017-09-10T14:38:11.482Z,0.88
2017-09-10T14:39:51.932Z,0.90
2017-09-10T14:41:07.784Z,1.20
2017-09-10T14:42:32.265Z,0.82
2017-09-10T14:43:45.209Z,1.00
2017-09-10T14:44:58.264Z,0.77
2017-09-10T14:46:14.372Z,0.90
2017-09-10T14:47:27.217Z,0.80
2017-09-10T14:54:44.209Z,0.95
2017-09-10T14:56:00.821Z,0.90
2017-09-10T14:57:12.055Z,0.85
2017-09-10T15:02:03.336Z,1.20
2017-09-10T15:03:28.078Z,0.80
2017-09-10T15:05:08.033Z,1.60
2017-09-10T15:11:07.193Z,1.48
2017-09-10T15:12:52.817Z,0.70
2017-09-10T15:14:13.041Z,1.00
2017-09-10T15:19:24.040Z,0.90
2017-09-10T15:20:33.083Z,0.88
2017-09-10T15:21:41.229Z,1.10
2017-09-10T15:24:31.018Z,1.00
2017-09-10T15:25:46.082Z,0.80
2017-09-10T15:27:00.882Z,1.05
2017-09-10T15:29:00.998Z,1.00
2017-09-10T15:30:31.938Z,0.80
2017-09-10T15:31:40.962Z,1.00
2017-09-10T15:32:59.896Z,0.70
2017-09-10T15:36:54.954Z,0.82
2017-09-10T15:38:23.934Z,0.80
2017-09-10T15:39:33.008Z,0.80
2017-09-10T15:41:03.479Z,0.70
2017-09-10T15:42:33.211Z,0.80
2017-09-10T15:44:08.178Z,0.80
2017-09-10T15:45:39.900Z,0.80
2017-09-10T15:47:27.947Z,0.70
2017-09-10T15:48:47.204Z,0.90
2017-09-10T15:50:15.970Z,1.10
2017-09-10T15:51:59.052Z,0.80
2017-09-10T15:53:11.177Z,1.25
2017-09-10T15:54:42.884Z,0.98
2017-09-10T15:56:03.662Z,1.02
2017-09-10T15:57:27.100Z,0.75
2017-09-10T15:58:45.605Z,0.88
2017-09-10T16:02:15.080Z,0.80
2017-09-10T16:03:28.229Z,0.80
2017-09-10T16:05:07.068Z,0.70
2017-09-10T16:06:30.045Z,1.00
2017-09-10T16:10:15.886Z,0.80
2017-09-10T16:11:54.799Z,0.80
2017-09-10T16:13:26.997Z,0.93
2017-09-10T16:14:43.971Z,1.00
2017-09-10T16:16:20.953Z,0.70
2017-09-10T16:17:35.324Z,1.27
2017-09-10T16:21:06.876Z,0.90
2017-09-10T16:24:21.626Z,1.23
2017-09-10T16:25:31.121Z,0.93
2017-09-10T16:26:59.753Z,1.30
2017-09-10T16:28:28.560Z,0.70
2017-09-10T16:29:46.985Z,1.08
2017-09-10T16:34:55.116Z,1.00
2017-09-10T16:36:25.681Z,0.82
2017-09-10T16:37:45.767Z,0.88
2017-09-10T16:39:20.716Z,1.00
2017-09-10T16:40:30.928Z,1.10
2017-09-10T16:41:40.878Z,1.30
2017-09-10T16:42:51.756Z,1.05
2017-09-10T16:44:04.675Z,1.17
2017-09-10T16:45:13.969Z,0.85
2017-09-10T16:46:23.702Z,0.90
2017-09-10T16:47:33.928Z,1.20
2017-09-10T16:48:44.038Z,1.40
2017-09-10T16:50:55.659Z,0.90
2017-09-10T16:52:06.729Z,1.00
2017-09-10T16:53:16.692Z,1.10
2017-09-10T16:54:26.999Z,1.10
2017-09-10T16:55:36.915Z,1.00
2017-09-10T16:56:46.833Z,1.23
2017-09-10T16:57:57.853Z,1.00
2017-09-10T16:59:07.844Z,1.10
2017-09-10T17:00:19.971Z,1.35
2017-09-10T17:01:29.774Z,1.00
2017-09-10T17:02:38.986Z,0.95
2017-09-10T17:03:49.936Z,1.05
2017-09-10T17:04:59.792Z,1.23
2017-09-10T17:06:11.976Z,1.12
2017-09-10T17:07:22.826Z,0.90
2017-09-10T17:08:33.831Z,1.08
2017-09-10T17:09:43.908Z,1.10
2017-09-10T17:10:54.704Z,1.10
2017-09-10T17:12:26.849Z,1.27
2017-09-10T17:13:35.791Z,1.25
2017-09-10T17:14:44.819Z,1.20
2017-09-10T17:15:55.701Z,1.00
2017-09-10T17:17:06.885Z,1.20
2017-09-10T17:18:18.864Z,1.35
2017-09-10T17:19:34.168Z,1.42
2017-09-10T17:21:13.898Z,1.00
2017-09-10T17:22:28.128Z,1.10
2017-09-10T17:23:39.745Z,1.08
2017-09-10T17:24:49.860Z,1.20
2017-09-10T17:26:01.965Z,1.30
2017-09-10T17:27:13.046Z,1.00
2017-09-10T17:28:24.968Z,0.90
2017-09-10T17:29:43.019Z,1.23
2017-09-10T17:30:55.796Z,1.20
2017-09-10T17:32:08.766Z,1.25
2017-09-10T17:33:21.832Z,1.40
2017-09-10T17:34:31.780Z,1.10
2017-09-10T17:35:42.888Z,1.12
2017-09-10T17:36:53.637Z,1.00
2017-09-10T17:38:29.874Z,1.10
2017-09-10T17:39:39.971Z,1.00
2017-09-10T17:40:52.211Z,1.00
2017-09-10T17:42:04.652Z,1.40
2017-09-10T17:43:15.868Z,0.93
2017-09-10T17:44:32.867Z,1.00
2017-09-10T17:45:45.725Z,1.30
2017-09-10T17:47:24.806Z,1.10
2017-09-10T17:48:41.866Z,1.30
2017-09-10T17:51:56.975Z,1.37
2017-09-10T17:53:25.750Z,1.45
2017-09-10T17:54:35.612Z,1.33
2017-09-10T17:55:44.528Z,1.00
2017-09-10T17:56:54.599Z,1.40
2017-09-10T17:58:04.377Z,1.40
2017-09-10T17:59:12.623Z,1.40
2017-09-10T18:00:20.890Z,2.00
2017-09-10T18:01:29.578Z,1.50
2017-09-10T18:02:39.684Z,1.15
2017-09-10T18:03:49.372Z,1.10
2017-09-10T18:04:57.969Z,1.25
2017-09-10T18:06:07.981Z,1.30
2017-09-10T18:07:16.576Z,1.50
2017-09-10T18:08:26.471Z,1.40
2017-09-10T18:09:35.571Z,1.37
2017-09-10T18:10:43.946Z,1.58
2017-09-10T18:11:52.530Z,1.60
2017-09-10T18:13:01.817Z,1.40
2017-09-10T18:14:09.431Z,1.40
2017-09-10T18:15:17.469Z,1.27
2017-09-10T18:16:25.285Z,1.60
2017-09-10T18:17:32.427Z,1.20
2017-09-10T18:18:39.360Z,1.80
2017-09-10T18:19:46.947Z,1.60
2017-09-10T18:20:53.518Z,1.50
2017-09-10T18:22:00.156Z,1.30
2017-09-10T18:23:06.816Z,1.58
2017-09-10T18:24:13.813Z,1.15
2017-09-10T18:25:20.729Z,1.40